Time;durP1;ratioP1;P1;durP2;ratioP2;P2;SDS_P1;SDS_P2;PMS_P1;PMS_P2;Temp;Humidity;BMP_temperature;BMP_pressure;BME280_temperature;BME280_humidity;BME280_pressure;Samples;Min_cycle;Max_cycle;Signal;HPM_P1;HPM_P2
2023/10/27 00:00:35;;;;;;;3.03;1.20;;;;;;;12.73;96.38;93661.28;6157030;23;20205;-84
2023/10/27 00:03:02;;;;;;;3.27;1.27;;;;;;;12.69;96.74;93666.16;6156074;23;20175;-85
2023/10/27 00:05:29;;;;;;;2.63;1.23;;;;;;;12.73;97.54;93681.94;6156608;23;20179;-83
2023/10/27 00:07:55;;;;;;;1.07;0.83;;;;;;;12.78;97.66;93682.00;6156897;23;20194;-84
2023/10/27 00:10:21;;;;;;;2.60;1.33;;;;;;;12.73;98.51;93687.09;6156492;23;20174;-83
2023/10/27 00:12:48;;;;;;;2.17;1.20;;;;;;;12.73;99.15;93692.25;6155916;23;20313;-84
2023/10/27 00:15:14;;;;;;;3.27;1.20;;;;;;;12.81;98.97;93689.28;6155869;23;20384;-83
2023/10/27 00:17:42;;;;;;;2.00;1.30;;;;;;;12.90;98.51;93682.69;6155431;23;20304;-84
2023/10/27 00:20:09;;;;;;;1.87;1.10;;;;;;;12.95;98.43;93675.03;6155782;23;20179;-84
2023/10/27 00:22:36;;;;;;;2.00;1.20;;;;;;;12.99;97.54;93676.13;6155484;23;20190;-84
2023/10/27 00:25:03;;;;;;;3.20;1.47;;;;;;;12.94;97.09;93654.59;6155544;23;20178;-82
2023/10/27 00:27:29;;;;;;;4.03;1.47;;;;;;;12.86;97.80;93663.53;6155795;23;20197;-84
2023/10/27 00:29:55;;;;;;;3.07;1.50;;;;;;;12.85;99.09;93672.31;6155336;23;20179;-84
2023/10/27 00:32:22;;;;;;;3.03;1.67;;;;;;;12.88;99.33;93677.00;6154970;23;20178;-85
2023/10/27 00:34:50;;;;;;;4.63;1.40;;;;;;;12.88;99.79;93678.81;6155252;23;20246;-84
2023/10/27 00:37:17;;;;;;;1.93;1.20;;;;;;;12.90;100.00;93679.31;6154581;23;20195;-84
2023/10/27 00:39:43;;;;;;;1.67;1.00;;;;;;;12.98;100.00;93695.22;6154908;23;20178;-84
2023/10/27 00:42:10;;;;;;;3.67;1.47;;;;;;;12.96;100.00;93697.25;6154802;23;20194;-83
2023/10/27 00:44:36;;;;;;;3.47;1.40;;;;;;;12.96;100.00;93705.00;6154118;23;20179;-84
2023/10/27 00:47:03;;;;;;;3.03;1.53;;;;;;;12.86;100.00;93717.78;6154873;23;20230;-84
2023/10/27 00:49:29;;;;;;;2.57;1.40;;;;;;;12.89;100.00;93722.47;6155152;23;20211;-83
2023/10/27 00:51:57;;;;;;;1.97;1.50;;;;;;;12.96;100.00;93723.09;6154601;23;20194;-84
2023/10/27 00:54:27;;;;;;;1.93;1.10;;;;;;;13.01;100.00;93719.78;6154992;23;20198;-84
2023/10/27 00:56:56;;;;;;;2.20;1.23;;;;;;;12.95;100.00;93710.41;6155526;23;20202;-84
2023/10/27 00:59:22;;;;;;;1.77;1.20;;;;;;;12.93;100.00;93709.84;6155391;23;20181;-84
2023/10/27 01:01:49;;;;;;;2.87;1.40;;;;;;;12.88;100.00;93718.31;6155235;23;20182;-84
2023/10/27 01:04:15;;;;;;;3.50;1.67;;;;;;;12.89;100.00;93719.91;6154650;23;20171;-84
2023/10/27 01:06:42;;;;;;;2.67;1.40;;;;;;;12.86;100.00;93730.69;6153847;23;20678;-84
2023/10/27 01:09:10;;;;;;;4.33;1.60;;;;;;;12.80;100.00;93732.41;6154583;23;20635;-84
2023/10/27 01:11:36;;;;;;;1.43;1.33;;;;;;;12.79;100.00;93735.22;6154188;23;20182;-84
2023/10/27 01:14:03;;;;;;;5.20;1.83;;;;;;;12.83;100.00;93726.00;6154635;23;20202;-84
2023/10/27 01:16:29;;;;;;;3.17;1.80;;;;;;;12.84;100.00;93726.78;6154773;23;20527;-84
2023/10/27 01:18:56;;;;;;;3.00;1.30;;;;;;;12.84;100.00;93724.97;6155267;23;20186;-84
2023/10/27 01:21:22;;;;;;;3.77;1.50;;;;;;;12.82;100.00;93718.47;6155082;23;20175;-84
2023/10/27 01:23:50;;;;;;;3.47;1.87;;;;;;;12.72;100.00;93712.13;6154522;23;20183;-84
2023/10/27 01:26:16;;;;;;;3.33;1.80;;;;;;;12.65;100.00;93731.41;6154352;23;20189;-84
2023/10/27 01:28:43;;;;;;;2.43;1.90;;;;;;;12.63;100.00;93721.31;6155496;23;20183;-84
2023/10/27 01:31:09;;;;;;;2.90;1.93;;;;;;;12.62;100.00;93709.41;6154497;23;20189;-84
2023/10/27 01:33:37;;;;;;;2.23;2.03;;;;;;;12.55;100.00;93706.19;6154693;23;20186;-83
2023/10/27 01:36:04;;;;;;;3.47;2.20;;;;;;;12.56;100.00;93704.38;6155204;23;20562;-82
2023/10/27 01:38:31;;;;;;;3.03;2.20;;;;;;;12.47;100.00;93705.81;6154866;23;20179;-83
2023/10/27 01:40:58;;;;;;;3.43;2.20;;;;;;;12.44;100.00;93738.03;6154684;23;20186;-84
2023/10/27 01:43:26;;;;;;;2.97;2.23;;;;;;;12.40;100.00;93737.69;6154773;23;20190;-84
2023/10/27 01:45:52;;;;;;;2.13;1.90;;;;;;;12.42;100.00;93745.22;6154792;23;20230;-84
2023/10/27 01:48:19;;;;;;;2.10;1.73;;;;;;;12.39;100.00;93745.69;6157942;23;20194;-86
2023/10/27 01:50:45;;;;;;;2.97;2.00;;;;;;;12.26;100.00;93751.13;6161019;23;20175;-84
2023/10/27 01:53:11;;;;;;;2.30;2.10;;;;;;;12.20;100.00;93749.47;6158869;23;20186;-86
2023/10/27 01:55:38;;;;;;;3.10;2.00;;;;;;;12.22;100.00;93744.88;6155801;23;20199;-86
2023/10/27 01:58:06;;;;;;;2.33;1.57;;;;;;;12.14;100.00;93763.28;6156669;23;20202;-85
2023/10/27 02:00:32;;;;;;;2.30;1.60;;;;;;;12.11;100.00;93756.81;6155988;23;20179;-85
2023/10/27 02:02:58;;;;;;;2.13;1.80;;;;;;;12.09;100.00;93790.56;6156647;23;20175;-86
2023/10/27 02:05:26;;;;;;;2.23;1.50;;;;;;;12.09;100.00;93788.00;6156486;23;20661;-86
2023/10/27 02:07:53;;;;;;;2.60;1.70;;;;;;;12.12;100.00;93775.66;6156865;23;20199;-84
2023/10/27 02:10:19;;;;;;;1.53;1.27;;;;;;;12.13;100.00;93785.72;6155816;23;20188;-85
2023/10/27 02:12:46;;;;;;;3.37;1.57;;;;;;;12.12;100.00;93771.28;6157253;23;20183;-85
2023/10/27 02:15:13;;;;;;;1.80;1.60;;;;;;;12.13;100.00;93783.13;6158060;23;20252;-84
2023/10/27 02:17:40;;;;;;;3.53;1.57;;;;;;;12.13;100.00;93765.06;6156200;23;20199;-86
2023/10/27 02:20:08;;;;;;;2.93;1.23;;;;;;;12.04;100.00;93769.84;6156065;23;20184;-85
2023/10/27 02:22:34;;;;;;;2.30;1.40;;;;;;;12.03;100.00;93760.53;6156937;23;20182;-86
2023/10/27 02:25:02;;;;;;;2.73;1.73;;;;;;;12.10;100.00;93766.34;6157606;23;20174;-84
2023/10/27 02:27:30;;;;;;;1.90;1.60;;;;;;;12.05;100.00;93773.19;6158296;23;20253;-85
2023/10/27 02:29:57;;;;;;;3.50;1.53;;;;;;;11.95;100.00;93778.16;6157450;23;20181;-85
2023/10/27 02:32:24;;;;;;;2.30;1.50;;;;;;;11.95;100.00;93780.72;6157719;23;20179;-84
2023/10/27 02:34:53;;;;;;;1.70;1.50;;;;;;;11.94;100.00;93769.63;6158138;23;20375;-85
2023/10/27 02:37:20;;;;;;;2.17;1.40;;;;;;;12.01;100.00;93780.59;6157839;23;20202;-85
2023/10/27 02:39:47;;;;;;;4.13;1.47;;;;;;;12.09;100.00;93776.88;6156241;23;20182;-84
2023/10/27 02:42:13;;;;;;;3.40;1.60;;;;;;;12.12;100.00;93773.84;6157441;23;20588;-84
2023/10/27 02:44:40;;;;;;;4.40;1.40;;;;;;;12.16;100.00;93767.19;6157149;23;20208;-83
2023/10/27 02:47:06;;;;;;;2.57;1.43;;;;;;;12.18;100.00;93764.38;6156164;23;20194;-83
2023/10/27 02:49:34;;;;;;;2.90;1.47;;;;;;;12.20;100.00;93752.84;6155700;23;20189;-84
2023/10/27 02:52:00;;;;;;;1.70;1.30;;;;;;;12.20;100.00;93746.88;6156810;23;20178;-85
2023/10/27 02:54:27;;;;;;;1.93;1.37;;;;;;;12.20;100.00;93746.88;6156203;23;20198;-84
2023/10/27 02:56:53;;;;;;;2.80;1.77;;;;;;;12.15;100.00;93760.47;6156395;23;20199;-84
2023/10/27 02:59:20;;;;;;;1.97;1.60;;;;;;;12.11;100.00;93749.06;6156221;23;20175;-85
2023/10/27 03:01:46;;;;;;;1.93;1.50;;;;;;;12.14;100.00;93740.06;6156332;23;20179;-85
2023/10/27 03:04:13;;;;;;;1.97;1.57;;;;;;;12.12;100.00;93753.22;6155592;23;20183;-84
2023/10/27 03:06:43;;;;;;;2.93;1.80;;;;;;;12.07;100.00;93763.44;6156359;23;20218;-83
2023/10/27 03:09:10;;;;;;;3.37;2.00;;;;;;;12.02;100.00;93771.06;6155831;23;20233;-83
2023/10/27 03:11:36;;;;;;;2.47;2.00;;;;;;;11.96;100.00;93779.72;6155849;23;20238;-84
2023/10/27 03:14:03;;;;;;;3.70;2.00;;;;;;;11.97;100.00;93763.22;6155722;23;20454;-85
2023/10/27 03:16:29;;;;;;;3.37;2.00;;;;;;;11.98;100.00;93768.16;6154540;23;20199;-84
2023/10/27 03:18:56;;;;;;;2.70;2.03;;;;;;;12.05;100.00;93776.56;6155399;23;20643;-84
2023/10/27 03:21:23;;;;;;;2.43;1.90;;;;;;;11.99;100.00;93769.72;6155962;23;20171;-84
2023/10/27 03:23:53;;;;;;;2.27;2.00;;;;;;;11.97;100.00;93778.69;6155376;23;20209;-84
2023/10/27 03:26:19;;;;;;;2.67;2.00;;;;;;;11.98;100.00;93793.16;6155971;23;20386;-84
2023/10/27 03:28:46;;;;;;;2.63;1.90;;;;;;;11.98;100.00;93791.38;6156373;23;20175;-84
2023/10/27 03:31:13;;;;;;;2.03;1.73;;;;;;;11.99;100.00;93787.00;6154794;23;20175;-84
2023/10/27 03:33:39;;;;;;;2.10;1.90;;;;;;;11.99;100.00;93792.94;6156115;23;20175;-84
2023/10/27 03:36:07;;;;;;;1.80;1.70;;;;;;;12.06;100.00;93785.09;6154614;23;20194;-84
2023/10/27 03:38:34;;;;;;;3.90;2.17;;;;;;;12.01;100.00;93785.75;6155392;23;20178;-84
2023/10/27 03:41:01;;;;;;;2.23;2.03;;;;;;;12.01;100.00;93790.13;6154753;23;20179;-83
2023/10/27 03:43:28;;;;;;;2.20;1.93;;;;;;;12.01;100.00;93788.34;6154313;23;20206;-85
2023/10/27 03:45:54;;;;;;;2.80;1.80;;;;;;;12.00;100.00;93788.56;6152749;23;20514;-85
2023/10/27 03:48:21;;;;;;;2.17;1.87;;;;;;;12.03;100.00;93786.31;6153224;23;20530;-85
2023/10/27 03:50:47;;;;;;;2.70;2.00;;;;;;;12.05;100.00;93771.41;6153359;23;20545;-85
2023/10/27 03:53:14;;;;;;;2.00;1.77;;;;;;;12.08;100.00;93772.75;6154017;23;20186;-84
2023/10/27 03:55:40;;;;;;;2.20;2.00;;;;;;;12.11;100.00;93774.88;6153593;23;20205;-85
2023/10/27 03:58:14;;;;;;;2.20;2.00;;;;;;;12.09;100.00;93776.88;6153544;23;20841;-85
2023/10/27 04:00:41;;;;;;;1.93;1.80;;;;;;;12.11;100.00;93769.72;6152761;23;20183;-84
2023/10/27 04:03:07;;;;;;;2.27;2.00;;;;;;;12.09;100.00;93769.16;6152545;23;20179;-84
2023/10/27 04:05:34;;;;;;;3.83;2.03;;;;;;;12.08;100.00;93772.75;6152717;23;20202;-84
2023/10/27 04:08:00;;;;;;;2.37;1.80;;;;;;;12.08;100.00;93763.22;6152481;23;20198;-84
2023/10/27 04:10:28;;;;;;;2.33;1.80;;;;;;;12.10;100.00;93761.19;6153192;23;20179;-85
2023/10/27 04:12:54;;;;;;;1.93;1.73;;;;;;;12.12;100.00;93766.13;6153460;23;20246;-84
2023/10/27 04:15:22;;;;;;;1.93;1.83;;;;;;;12.16;100.00;93761.25;6153479;23;20199;-84
2023/10/27 04:17:48;;;;;;;2.40;2.20;;;;;;;12.10;100.00;93768.91;6154083;23;20199;-84
2023/10/27 04:20:15;;;;;;;2.40;1.83;;;;;;;12.13;100.00;93769.44;6153783;23;20178;-84
2023/10/27 04:22:41;;;;;;;2.23;1.80;;;;;;;12.13;100.00;93770.22;6153846;23;20175;-84
2023/10/27 04:25:09;;;;;;;2.33;2.10;;;;;;;12.13;100.00;93777.19;6154215;23;20175;-84
2023/10/27 04:27:37;;;;;;;2.07;1.80;;;;;;;12.16;100.00;93772.34;6151644;23;20194;-85
2023/10/27 04:30:07;;;;;;;1.87;1.73;;;;;;;12.10;100.00;93768.13;6154110;23;20890;-86
2023/10/27 04:32:36;;;;;;;3.13;2.10;;;;;;;12.16;100.00;93774.94;6154055;23;20186;-86
2023/10/27 04:35:05;;;;;;;2.30;1.80;;;;;;;12.19;100.00;93759.00;6155357;23;20195;-86
2023/10/27 04:37:32;;;;;;;3.77;1.90;;;;;;;12.22;100.00;93761.13;6153586;23;20195;-87
2023/10/27 04:40:00;;;;;;;3.20;1.90;;;;;;;12.18;100.00;93741.97;6154080;23;20182;-87
2023/10/27 04:42:29;;;;;;;2.93;1.83;;;;;;;12.16;100.00;93749.13;6153506;23;20214;-86
2023/10/27 04:44:55;;;;;;;2.33;1.50;;;;;;;12.15;100.00;93754.53;6152072;23;20179;-87
2023/10/27 04:47:23;;;;;;;1.63;1.43;;;;;;;12.15;100.00;93751.94;6153572;23;20530;-88
2023/10/27 04:49:53;;;;;;;2.07;1.70;;;;;;;12.16;99.94;93738.03;6154447;23;20210;-87
2023/10/27 04:52:19;;;;;;;1.90;1.50;;;;;;;12.13;99.80;93736.69;6154184;23;20175;-87
2023/10/27 04:54:48;;;;;;;2.60;1.57;;;;;;;12.11;100.00;93751.66;6155384;23;20175;-88
2023/10/27 04:57:17;;;;;;;3.30;1.60;;;;;;;12.14;100.00;93747.81;6152588;23;20206;-87
2023/10/27 04:59:44;;;;;;;1.80;1.67;;;;;;;12.16;100.00;93743.97;6152075;23;20183;-86
2023/10/27 05:02:15;;;;;;;2.43;1.40;;;;;;;12.12;100.00;93739.53;6153211;23;20189;-87
2023/10/27 05:04:41;;;;;;;1.87;1.23;;;;;;;12.14;99.75;93730.53;6137408;23;20163;-86
2023/10/27 05:07:10;;;;;;;1.73;1.63;;;;;;;12.13;100.00;93728.19;6151361;23;20226;-88
2023/10/27 05:09:36;;;;;;;2.50;1.73;;;;;;;12.09;99.52;93726.09;6152305;23;20186;-87
2023/10/27 05:12:03;;;;;;;3.87;1.47;;;;;;;12.09;99.37;93726.09;6152207;23;20179;-86
2023/10/27 05:14:34;;;;;;;2.33;1.60;;;;;;;12.09;99.67;93726.09;6151007;23;20223;-88
2023/10/27 05:17:00;;;;;;;2.17;1.87;;;;;;;12.08;100.00;93723.72;6152115;23;20210;-87
2023/10/27 05:19:27;;;;;;;5.33;3.20;;;;;;;11.99;100.00;93780.03;6150714;23;20262;-86
2023/10/27 05:21:53;;;;;;;4.20;1.87;;;;;;;12.06;100.00;93751.56;6150714;23;20179;-87
2023/10/27 05:24:21;;;;;;;3.97;2.00;;;;;;;12.10;100.00;93743.13;6150770;23;20182;-87
2023/10/27 05:26:47;;;;;;;2.90;1.83;;;;;;;12.01;100.00;93731.59;6150135;23;20202;-88
2023/10/27 05:29:14;;;;;;;3.43;1.90;;;;;;;12.02;100.00;93724.66;6151419;23;20175;-88
2023/10/27 05:31:43;;;;;;;3.37;1.73;;;;;;;12.03;100.00;93747.63;6150751;23;20198;-87
2023/10/27 05:34:09;;;;;;;3.20;1.90;;;;;;;11.99;100.00;93761.22;6150477;23;20187;-87
2023/10/27 05:36:36;;;;;;;3.60;1.77;;;;;;;12.03;100.00;93755.38;6152277;23;20294;-87
2023/10/27 05:39:05;;;;;;;1.73;1.20;;;;;;;12.06;100.00;93747.19;6152447;23;20181;-87
2023/10/27 05:41:38;;;;;;;3.77;2.03;;;;;;;12.14;100.00;93755.53;6152936;23;20175;-87
2023/10/27 05:44:08;;;;;;;9.13;2.83;;;;;;;12.12;100.00;93788.56;6153898;23;20607;-89
2023/10/27 05:46:34;;;;;;;11.50;7.90;;;;;;;12.15;100.00;93785.47;6152011;23;20700;-88
2023/10/27 05:49:03;;;;;;;7.97;7.13;;;;;;;12.20;100.00;93772.69;6152211;23;20179;-87
2023/10/27 05:51:29;;;;;;;4.77;3.50;;;;;;;12.24;100.00;93782.31;6152839;23;20254;-87
2023/10/27 05:53:56;;;;;;;2.40;2.20;;;;;;;12.24;100.00;93794.44;6152921;23;20492;-89
2023/10/27 05:56:25;;;;;;;4.03;1.83;;;;;;;12.24;100.00;93784.13;6151283;23;20693;-85
2023/10/27 05:58:52;;;;;;;3.10;1.87;;;;;;;12.25;100.00;93791.63;6151811;23;20254;-87
2023/10/27 06:01:19;;;;;;;3.30;1.73;;;;;;;12.27;100.00;93806.88;6151694;23;20672;-87
2023/10/27 06:03:46;;;;;;;2.10;1.63;;;;;;;12.24;100.00;93807.34;6151673;23;20179;-88
2023/10/27 06:06:12;;;;;;;3.37;1.70;;;;;;;12.24;100.00;93820.25;6153561;23;20226;-86
2023/10/27 06:08:42;;;;;;;3.17;1.83;;;;;;;12.18;100.00;93827.09;6154574;23;20271;-89
2023/10/27 06:11:13;;;;;;;5.13;2.43;;;;;;;12.17;100.00;93835.06;6155206;23;20178;-87
2023/10/27 06:13:44;;;;;;;7.83;7.03;;;;;;;12.16;100.00;93848.97;6155197;23;20193;-87
2023/10/27 06:16:12;;;;;;;3.83;2.80;;;;;;;12.17;100.00;93841.00;6154374;23;20482;-88
2023/10/27 06:18:44;;;;;;;3.70;2.60;;;;;;;12.14;100.00;93853.56;6154540;23;20201;-87
2023/10/27 06:21:13;;;;;;;3.13;2.10;;;;;;;12.19;100.00;93871.72;6155233;23;20217;-87
2023/10/27 06:23:40;;;;;;;4.13;1.67;;;;;;;12.18;100.00;93854.69;6154804;23;20545;-87
2023/10/27 06:26:09;;;;;;;1.40;1.30;;;;;;;12.15;100.00;93862.88;6155825;23;20226;-87
2023/10/27 06:28:35;;;;;;;1.77;1.23;;;;;;;12.18;100.00;93857.25;6156353;23;20206;-88
2023/10/27 06:31:03;;;;;;;1.73;1.40;;;;;;;12.23;100.00;93859.94;6155559;23;20190;-86
2023/10/27 06:33:38;;;;;;;2.23;1.60;;;;;;;12.21;100.00;93854.22;6155311;23;20187;-86
2023/10/27 06:36:05;;;;;;;2.13;1.30;;;;;;;12.21;100.00;93860.19;6155834;23;20262;-87
2023/10/27 06:38:36;;;;;;;3.20;1.73;;;;;;;12.25;100.00;93840.66;6154395;23;20195;-87
2023/10/27 06:41:05;;;;;;;2.50;1.70;;;;;;;12.24;100.00;93840.88;6155826;23;20190;-87
2023/10/27 06:43:32;;;;;;;2.40;1.60;;;;;;;12.24;100.00;93838.31;6155092;23;20175;-87
2023/10/27 06:45:58;;;;;;;4.37;2.00;;;;;;;12.21;100.00;93839.53;6154581;23;20175;-89
2023/10/27 06:48:25;;;;;;;10.63;9.60;;;;;;;12.26;100.00;93844.00;6153744;23;20207;-87
2023/10/27 06:50:52;;;;;;;12.60;11.27;;;;;;;12.31;100.00;93851.88;6154324;23;20175;-87
2023/10/27 06:53:19;;;;;;;6.13;5.13;;;;;;;12.32;100.00;93863.72;6154586;23;20190;-88
2023/10/27 06:55:45;;;;;;;3.40;2.37;;;;;;;12.34;100.00;93853.97;6155276;23;20202;-87
2023/10/27 06:58:12;;;;;;;2.87;2.13;;;;;;;12.36;100.00;93847.56;6153946;23;20198;-87
2023/10/27 07:00:38;;;;;;;3.60;1.90;;;;;;;12.38;100.00;93862.81;6155154;23;20262;-88
2023/10/27 07:03:05;;;;;;;4.23;2.40;;;;;;;12.37;100.00;93861.25;6155342;23;20198;-87
2023/10/27 07:05:33;;;;;;;4.17;2.10;;;;;;;12.36;100.00;93878.53;6154159;23;20650;-87
2023/10/27 07:08:01;;;;;;;3.30;2.10;;;;;;;12.41;100.00;93883.78;6154233;23;20198;-87
2023/10/27 07:10:27;;;;;;;2.30;1.90;;;;;;;12.47;100.00;93871.78;6155558;23;20257;-87
2023/10/27 07:12:54;;;;;;;3.20;2.27;;;;;;;12.51;100.00;93870.28;6154906;23;20185;-87
2023/10/27 07:15:20;;;;;;;3.20;2.10;;;;;;;12.53;100.00;93857.94;6154083;23;20435;-87
2023/10/27 07:17:53;;;;;;;3.10;2.50;;;;;;;12.45;100.00;93891.88;6155635;23;20250;-87
2023/10/27 07:20:24;;;;;;;2.80;2.00;;;;;;;12.47;100.00;93886.47;6153280;23;20213;-87
2023/10/27 07:22:51;;;;;;;3.13;2.03;;;;;;;12.50;100.00;93880.88;6153814;23;20178;-87
2023/10/27 07:25:19;;;;;;;3.00;2.00;;;;;;;12.57;100.00;93874.53;6154828;23;20204;-87
2023/10/27 07:27:45;;;;;;;3.00;2.00;;;;;;;12.56;100.00;93878.13;6153457;23;20194;-88
2023/10/27 07:30:13;;;;;;;2.20;1.90;;;;;;;12.62;100.00;93889.34;6154087;23;20233;-88
2023/10/27 07:32:39;;;;;;;2.70;2.20;;;;;;;12.64;100.00;93898.44;6154296;23;20183;-87
2023/10/27 07:35:06;;;;;;;3.07;1.90;;;;;;;12.61;100.00;93904.03;6154114;23;20182;-88
2023/10/27 07:37:33;;;;;;;2.87;2.10;;;;;;;12.61;100.00;93914.38;6153529;23;20785;-88
2023/10/27 07:39:59;;;;;;;2.20;2.00;;;;;;;12.67;100.00;93913.47;6154311;23;20179;-87
2023/10/27 07:42:35;;;;;;;11.60;10.40;;;;;;;12.70;100.00;93907.81;6153645;23;20175;-88
2023/10/27 07:45:02;;;;;;;3.93;3.53;;;;;;;12.71;100.00;93926.69;6154740;23;20159;-88
2023/10/27 07:47:29;;;;;;;3.50;2.90;;;;;;;12.75;100.00;93918.25;6153454;23;20624;-87
2023/10/27 07:49:56;;;;;;;3.23;2.47;;;;;;;12.77;100.00;93912.84;6153581;23;20627;-87
2023/10/27 07:52:22;;;;;;;2.30;2.10;;;;;;;12.77;100.00;93903.31;6156967;23;20202;-87
2023/10/27 07:54:49;;;;;;;3.00;2.50;;;;;;;12.82;100.00;93910.38;6155259;23;20185;-86
2023/10/27 07:57:15;;;;;;;4.33;2.20;;;;;;;12.82;100.00;93917.34;6153014;23;20203;-87
2023/10/27 07:59:44;;;;;;;1.93;1.80;;;;;;;12.89;100.00;93912.81;6153163;23;20512;-89
2023/10/27 08:02:12;;;;;;;2.43;2.23;;;;;;;12.90;100.00;93909.97;6154170;23;20193;-88
2023/10/27 08:04:40;;;;;;;2.73;1.60;;;;;;;12.79;100.00;93921.16;6154194;23;20167;-90
2023/10/27 08:07:08;;;;;;;1.83;1.70;;;;;;;12.79;100.00;93937.44;6153578;23;20683;-88
2023/10/27 08:09:35;;;;;;;1.40;1.30;;;;;;;12.86;100.00;93952.03;6154482;23;20175;-88
2023/10/27 08:12:01;;;;;;;1.33;1.23;;;;;;;12.89;100.00;93967.06;6151536;23;20179;-89
2023/10/27 08:14:28;;;;;;;1.20;1.10;;;;;;;12.91;100.00;93976.13;6152556;23;20274;-88
2023/10/27 08:16:56;;;;;;;1.10;1.10;;;;;;;12.83;100.00;93980.88;6153006;23;20261;-89
2023/10/27 08:19:22;;;;;;;1.13;1.03;;;;;;;12.89;100.00;93987.72;6152650;23;20647;-89
2023/10/27 08:21:49;;;;;;;1.20;0.90;;;;;;;12.94;100.00;93998.13;6154104;23;20183;-89
2023/10/27 08:24:16;;;;;;;0.80;0.80;;;;;;;12.93;100.00;94004.31;6154421;23;20694;-88
2023/10/27 08:26:43;;;;;;;1.70;0.80;;;;;;;12.93;100.00;94010.25;6154451;23;20261;-87
2023/10/27 08:29:09;;;;;;;0.90;0.90;;;;;;;12.84;100.00;94019.41;6155375;23;20244;-87
2023/10/27 08:31:36;;;;;;;2.43;2.13;;;;;;;12.83;100.00;94023.00;6154358;23;20186;-88
2023/10/27 08:34:04;;;;;;;1.20;1.03;;;;;;;12.85;100.00;94028.72;6155765;23;20175;-88
2023/10/27 08:36:33;;;;;;;1.47;0.90;;;;;;;12.82;100.00;94052.41;6156900;23;20241;-87
2023/10/27 08:39:00;;;;;;;1.40;0.90;;;;;;;12.75;100.00;94044.00;6156568;23;20376;-87
2023/10/27 08:41:26;;;;;;;0.83;0.83;;;;;;;12.68;100.00;94028.66;6155139;23;20233;-86
2023/10/27 08:43:54;;;;;;;0.70;0.70;;;;;;;12.70;100.00;94007.75;6155394;23;20553;-87
2023/10/27 08:46:21;;;;;;;0.60;0.60;;;;;;;12.67;100.00;94000.47;6153425;23;20257;-88
2023/10/27 08:48:48;;;;;;;0.60;0.60;;;;;;;12.70;100.00;93994.84;6155215;23;20658;-88
2023/10/27 08:51:16;;;;;;;0.70;0.70;;;;;;;12.63;100.00;94020.00;6155984;23;20179;-88
2023/10/27 08:53:42;;;;;;;0.70;0.70;;;;;;;12.66;100.00;94006.63;6154117;23;20179;-87
2023/10/27 08:56:12;;;;;;;0.70;0.70;;;;;;;12.76;100.00;93999.88;6152540;23;20266;-87
2023/10/27 08:58:38;;;;;;;0.50;0.50;;;;;;;12.73;100.00;94000.31;6152972;23;20488;-89
2023/10/27 09:01:08;;;;;;;0.53;0.53;;;;;;;12.72;100.00;93967.75;6142538;23;20179;-88
2023/10/27 09:03:34;;;;;;;1.20;0.60;;;;;;;12.74;100.00;94001.88;6148656;23;20186;-88
2023/10/27 09:06:01;;;;;;;1.03;0.60;;;;;;;12.79;100.00;93994.25;6152705;23;20179;-87
2023/10/27 09:08:29;;;;;;;2.23;2.03;;;;;;;12.91;100.00;93989.03;6152611;23;20204;-87
2023/10/27 09:10:56;;;;;;;1.87;1.77;;;;;;;12.99;100.00;93983.53;6151610;23;20186;-88
2023/10/27 09:13:23;;;;;;;0.80;0.80;;;;;;;13.05;100.00;93961.16;6152495;23;20233;-87
2023/10/27 09:15:51;;;;;;;0.60;0.60;;;;;;;13.01;100.00;93981.50;6152315;23;20179;-87
2023/10/27 09:18:18;;;;;;;0.60;0.60;;;;;;;12.86;100.00;93965.72;6155222;23;20205;-87
2023/10/27 09:20:49;;;;;;;0.70;0.60;;;;;;;12.87;100.00;93974.25;6163773;23;20195;-87
2023/10/27 09:23:15;;;;;;;0.80;0.50;;;;;;;12.93;100.00;93965.56;6161541;23;20186;-88
2023/10/27 09:25:43;;;;;;;0.93;0.60;;;;;;;13.11;100.00;93958.41;6159326;23;20182;-88
2023/10/27 09:28:11;;;;;;;0.90;0.50;;;;;;;13.20;99.17;93966.63;6157663;23;20206;-88
2023/10/27 09:30:39;;;;;;;0.55;0.55;;;;;;;13.26;98.58;93955.34;6155865;23;20250;-87
2023/10/27 09:33:14;;;;;;;0.70;0.57;;;;;;;13.24;99.97;93972.91;6157960;23;20189;-89
2023/10/27 09:35:43;;;;;;;1.00;0.80;;;;;;;13.16;98.46;93954.38;6157767;23;20184;-89
2023/10/27 09:38:10;;;;;;;0.63;0.63;;;;;;;13.17;99.58;93959.31;6158305;23;20206;-88
2023/10/27 09:40:38;;;;;;;0.80;0.63;;;;;;;13.04;98.43;93951.84;6160831;23;20175;-88
2023/10/27 09:43:08;;;;;;;0.60;0.60;;;;;;;13.11;100.00;93986.03;6158333;23;20175;-89
2023/10/27 09:45:37;;;;;;;0.60;0.60;;;;;;;12.99;99.47;93980.16;6158594;23;20159;-88
2023/10/27 09:48:06;;;;;;;0.50;0.50;;;;;;;12.97;97.98;93970.03;6158160;23;20199;-87
2023/10/27 09:50:33;;;;;;;0.60;0.53;;;;;;;12.94;97.43;93959.38;6157538;23;20186;-89
2023/10/27 09:53:01;;;;;;;0.60;0.60;;;;;;;12.99;96.47;93954.31;6159360;23;20267;-87
2023/10/27 09:55:28;;;;;;;0.60;0.60;;;;;;;12.89;93.82;93920.56;6158009;23;20179;-89
2023/10/27 09:57:59;;;;;;;1.33;0.60;;;;;;;13.03;93.47;93908.94;6157401;23;20199;-88
2023/10/27 10:00:31;;;;;;;0.67;0.63;;;;;;;13.42;91.66;93889.97;6158809;23;20159;-87
2023/10/27 10:02:59;;;;;;;0.60;0.60;;;;;;;13.76;90.59;93880.38;6159228;23;20655;-87
2023/10/27 10:05:28;;;;;;;5.17;4.33;;;;;;;13.95;87.46;93826.56;6157796;23;20171;-88
2023/10/27 10:07:56;;;;;;;0.70;0.70;;;;;;;14.11;85.71;93791.28;6156138;23;20199;-87
2023/10/27 10:10:32;;;;;;;0.68;0.68;;;;;;;14.32;84.77;93774.16;6156579;23;20233;-88
2023/10/27 10:13:02;;;;;;;1.02;0.75;;;;;;;14.38;81.34;93709.25;6154377;23;20189;-88
2023/10/27 10:15:32;;;;;;;0.55;0.55;;;;;;;14.39;77.98;93624.63;6154850;23;20515;-85
2023/10/27 10:18:01;;;;;;;0.50;0.50;;;;;;;14.44;77.05;93612.50;6153086;23;20194;-88
2023/10/27 10:21:12;;;;;;;0.88;0.60;;;;;;;14.34;76.05;93586.50;6153404;23;20190;-88
2023/10/27 10:24:14;;;;;;;0.77;0.65;;;;;;;14.35;77.42;93621.72;6029457;23;20309;-88
2023/10/27 10:27:15;;;;;;;1.52;0.88;;;;;;;14.45;77.49;93623.63;6015324;23;20193;-88
2023/10/27 10:37:06;;;;;;;0.68;0.63;;;;;;;14.39;71.14;93420.88;6111188;23;20179;-85
2023/10/27 10:40:24;;;;;;;1.70;0.68;;;;;;;14.29;71.13;93426.00;6103861;23;20265;-86
2023/10/27 10:43:36;;;;;;;3.58;1.13;;;;;;;14.24;72.47;93480.31;6155536;23;20178;-86
2023/10/27 10:49:36;;;;;;;0.70;0.68;;;;;;;14.45;71.41;93450.94;6113353;23;20204;-84
2023/10/27 11:22:49;;;;;;;1.27;0.85;;;;;;;13.89;68.43;93377.41;6094399;23;20175;-91
2023/10/27 16:38:03;;;;;;;1.05;0.90;;;;;;;13.63;68.50;93635.06;6153417;23;20206;-87
2023/10/27 16:40:33;;;;;;;0.80;0.80;;;;;;;13.60;68.79;93638.13;6156033;23;20167;-86
2023/10/27 16:42:59;;;;;;;1.03;0.90;;;;;;;13.60;68.93;93665.78;6154365;23;20179;-86
2023/10/27 16:45:33;;;;;;;0.70;0.68;;;;;;;13.51;69.10;93667.22;6154606;23;20179;-90
2023/10/27 16:48:00;;;;;;;0.87;0.70;;;;;;;13.56;69.27;93688.75;6153839;23;20186;-88
2023/10/27 16:50:32;;;;;;;0.93;0.80;;;;;;;13.56;69.34;93687.97;6155215;23;20193;-90
2023/10/27 16:53:03;;;;;;;1.30;0.80;;;;;;;13.46;69.91;93704.16;6155802;23;20819;-86
2023/10/27 16:55:32;;;;;;;0.97;0.90;;;;;;;13.38;70.33;93714.91;6155365;23;20262;-86
2023/10/27 16:58:02;;;;;;;0.87;0.87;;;;;;;13.33;70.57;93725.94;6156116;23;20203;-87
2023/10/27 17:00:35;;;;;;;1.40;1.07;;;;;;;13.29;70.92;93742.16;6154821;23;20194;-88
2023/10/27 17:03:02;;;;;;;1.57;1.03;;;;;;;13.23;71.22;93767.16;6154227;23;20163;-86
2023/10/27 17:05:29;;;;;;;1.23;1.00;;;;;;;13.28;71.49;93774.19;6155913;23;20175;-87
2023/10/27 17:07:55;;;;;;;1.23;1.03;;;;;;;13.31;71.42;93776.31;6157544;23;20233;-84
2023/10/27 17:10:23;;;;;;;2.83;1.30;;;;;;;13.36;71.31;93773.78;6158623;23;20182;-84
2023/10/27 17:12:50;;;;;;;1.20;1.00;;;;;;;13.35;71.39;93767.84;6157835;23;20253;-86
2023/10/27 17:15:16;;;;;;;1.10;1.00;;;;;;;13.38;71.40;93764.78;6157388;23;20500;-86
2023/10/27 17:17:42;;;;;;;2.38;1.20;;;;;;;13.41;71.49;93777.25;6158729;23;20199;-86
2023/10/27 17:20:10;;;;;;;1.57;1.00;;;;;;;13.37;71.73;93781.31;6159931;23;20185;-86
2023/10/27 17:22:37;;;;;;;2.40;1.30;;;;;;;13.34;71.85;93786.19;6157265;23;20178;-85
2023/10/27 17:25:04;;;;;;;1.53;0.77;;;;;;;13.30;71.82;93792.81;6156987;23;20178;-87